sensor_id;sensor_type;location;lat;lon;timestamp;temperature;humidity
81524;DHT22;70954;49.500;10.416;2023-09-12T00:01:59;20.10;57.20
81524;DHT22;70954;49.500;10.416;2023-09-12T00:04:24;20.00;57.30
81524;DHT22;70954;49.500;10.416;2023-09-12T00:06:49;20.00;57.30
81524;DHT22;70954;49.500;10.416;2023-09-12T00:09:15;20.00;57.40
81524;DHT22;70954;49.500;10.416;2023-09-12T00:11:40;20.00;57.50
81524;DHT22;70954;49.500;10.416;2023-09-12T00:14:09;19.90;57.60
81524;DHT22;70954;49.500;10.416;2023-09-12T00:16:34;19.90;57.70
81524;DHT22;70954;49.500;10.416;2023-09-12T00:19:00;19.90;57.70
81524;DHT22;70954;49.500;10.416;2023-09-12T00:21:25;19.80;57.80
81524;DHT22;70954;49.500;10.416;2023-09-12T00:23:51;19.80;57.90
81524;DHT22;70954;49.500;10.416;2023-09-12T00:26:16;19.70;58.00
81524;DHT22;70954;49.500;10.416;2023-09-12T00:28:42;19.70;58.00
81524;DHT22;70954;49.500;10.416;2023-09-12T00:31:07;19.70;58.10
81524;DHT22;70954;49.500;10.416;2023-09-12T00:33:33;19.70;58.10
81524;DHT22;70954;49.500;10.416;2023-09-12T00:35:58;19.70;58.20
81524;DHT22;70954;49.500;10.416;2023-09-12T00:38:24;19.60;58.20
81524;DHT22;70954;49.500;10.416;2023-09-12T00:40:49;19.50;58.20
81524;DHT22;70954;49.500;10.416;2023-09-12T00:43:16;19.50;58.20
81524;DHT22;70954;49.500;10.416;2023-09-12T00:45:41;19.50;58.20
81524;DHT22;70954;49.500;10.416;2023-09-12T00:48:07;19.50;58.20
81524;DHT22;70954;49.500;10.416;2023-09-12T00:50:35;19.50;58.30
81524;DHT22;70954;49.500;10.416;2023-09-12T00:53:03;19.40;58.40
81524;DHT22;70954;49.500;10.416;2023-09-12T00:55:29;19.40;58.60
81524;DHT22;70954;49.500;10.416;2023-09-12T00:57:56;19.40;58.60
81524;DHT22;70954;49.500;10.416;2023-09-12T01:00:22;19.30;58.70
81524;DHT22;70954;49.500;10.416;2023-09-12T01:02:48;19.30;58.70
81524;DHT22;70954;49.500;10.416;2023-09-12T01:05:14;19.30;58.70
81524;DHT22;70954;49.500;10.416;2023-09-12T01:07:41;19.20;58.70
81524;DHT22;70954;49.500;10.416;2023-09-12T01:10:07;19.20;58.70
81524;DHT22;70954;49.500;10.416;2023-09-12T01:12:33;19.20;58.80
81524;DHT22;70954;49.500;10.416;2023-09-12T01:14:58;19.20;58.80
81524;DHT22;70954;49.500;10.416;2023-09-12T01:17:25;19.20;58.90
81524;DHT22;70954;49.500;10.416;2023-09-12T01:19:51;19.10;58.80
81524;DHT22;70954;49.500;10.416;2023-09-12T01:27:58;19.00;59.40
81524;DHT22;70954;49.500;10.416;2023-09-12T01:30:25;19.00;58.90
81524;DHT22;70954;49.500;10.416;2023-09-12T01:32:53;19.00;59.00
81524;DHT22;70954;49.500;10.416;2023-09-12T01:35:19;18.90;59.10
81524;DHT22;70954;49.500;10.416;2023-09-12T01:37:44;18.90;59.10
81524;DHT22;70954;49.500;10.416;2023-09-12T01:40:10;18.90;59.20
81524;DHT22;70954;49.500;10.416;2023-09-12T01:42:37;18.90;59.20
81524;DHT22;70954;49.500;10.416;2023-09-12T01:45:04;18.80;59.30
81524;DHT22;70954;49.500;10.416;2023-09-12T01:47:31;18.80;59.30
81524;DHT22;70954;49.500;10.416;2023-09-12T01:49:58;18.80;59.40
81524;DHT22;70954;49.500;10.416;2023-09-12T01:52:27;18.80;59.50
81524;DHT22;70954;49.500;10.416;2023-09-12T01:54:53;18.70;59.60
81524;DHT22;70954;49.500;10.416;2023-09-12T01:57:19;18.70;59.70
81524;DHT22;70954;49.500;10.416;2023-09-12T01:59:45;18.70;59.70
81524;DHT22;70954;49.500;10.416;2023-09-12T02:02:10;18.70;59.70
81524;DHT22;70954;49.500;10.416;2023-09-12T02:04:36;18.70;59.80
81524;DHT22;70954;49.500;10.416;2023-09-12T02:07:01;18.60;59.70
81524;DHT22;70954;49.500;10.416;2023-09-12T02:09:27;18.60;59.70
81524;DHT22;70954;49.500;10.416;2023-09-12T02:11:52;18.60;59.70
81524;DHT22;70954;49.500;10.416;2023-09-12T02:14:18;18.60;59.70
81524;DHT22;70954;49.500;10.416;2023-09-12T02:16:43;18.50;59.70
81524;DHT22;70954;49.500;10.416;2023-09-12T02:19:09;18.50;59.80
81524;DHT22;70954;49.500;10.416;2023-09-12T02:21:34;18.50;59.80
81524;DHT22;70954;49.500;10.416;2023-09-12T02:24:00;18.50;59.80
81524;DHT22;70954;49.500;10.416;2023-09-12T02:26:25;18.40;59.90
81524;DHT22;70954;49.500;10.416;2023-09-12T02:28:50;18.40;60.00
81524;DHT22;70954;49.500;10.416;2023-09-12T02:31:16;18.40;60.10
81524;DHT22;70954;49.500;10.416;2023-09-12T02:33:42;18.30;60.20
81524;DHT22;70954;49.500;10.416;2023-09-12T02:36:07;18.30;60.30
81524;DHT22;70954;49.500;10.416;2023-09-12T02:38:33;18.30;60.30
81524;DHT22;70954;49.500;10.416;2023-09-12T02:40:58;18.30;60.40
81524;DHT22;70954;49.500;10.416;2023-09-12T02:43:24;18.30;60.50
81524;DHT22;70954;49.500;10.416;2023-09-12T02:45:49;18.30;60.50
81524;DHT22;70954;49.500;10.416;2023-09-12T02:48:15;18.20;60.50
81524;DHT22;70954;49.500;10.416;2023-09-12T02:50:40;18.20;60.50
81524;DHT22;70954;49.500;10.416;2023-09-12T02:53:06;18.20;60.50
81524;DHT22;70954;49.500;10.416;2023-09-12T02:55:31;18.20;60.50
81524;DHT22;70954;49.500;10.416;2023-09-12T02:57:57;18.20;60.60
81524;DHT22;70954;49.500;10.416;2023-09-12T03:00:22;18.20;60.60
81524;DHT22;70954;49.500;10.416;2023-09-12T03:02:48;18.10;60.50
81524;DHT22;70954;49.500;10.416;2023-09-12T03:05:13;18.10;60.50
81524;DHT22;70954;49.500;10.416;2023-09-12T03:07:39;18.10;60.60
81524;DHT22;70954;49.500;10.416;2023-09-12T03:10:05;18.10;60.60
81524;DHT22;70954;49.500;10.416;2023-09-12T03:12:30;18.10;60.60
81524;DHT22;70954;49.500;10.416;2023-09-12T03:14:56;18.00;60.70
81524;DHT22;70954;49.500;10.416;2023-09-12T03:17:21;18.00;60.80
81524;DHT22;70954;49.500;10.416;2023-09-12T03:19:47;18.00;60.80
81524;DHT22;70954;49.500;10.416;2023-09-12T03:22:12;18.00;60.90
81524;DHT22;70954;49.500;10.416;2023-09-12T03:24:38;18.00;61.00
81524;DHT22;70954;49.500;10.416;2023-09-12T03:27:03;18.00;61.00
81524;DHT22;70954;49.500;10.416;2023-09-12T03:29:29;18.00;61.10
81524;DHT22;70954;49.500;10.416;2023-09-12T03:31:54;18.00;61.10
81524;DHT22;70954;49.500;10.416;2023-09-12T03:34:20;18.00;61.10
81524;DHT22;70954;49.500;10.416;2023-09-12T03:36:45;18.00;61.10
81524;DHT22;70954;49.500;10.416;2023-09-12T03:39:11;17.90;61.10
81524;DHT22;70954;49.500;10.416;2023-09-12T03:41:36;17.90;61.00
81524;DHT22;70954;49.500;10.416;2023-09-12T03:44:02;17.90;60.90
81524;DHT22;70954;49.500;10.416;2023-09-12T03:46:27;17.90;60.90
81524;DHT22;70954;49.500;10.416;2023-09-12T03:48:52;17.80;61.00
81524;DHT22;70954;49.500;10.416;2023-09-12T03:51:18;17.80;61.00
81524;DHT22;70954;49.500;10.416;2023-09-12T03:53:43;17.80;61.00
81524;DHT22;70954;49.500;10.416;2023-09-12T03:56:09;17.80;61.00
81524;DHT22;70954;49.500;10.416;2023-09-12T03:58:34;17.80;61.10
81524;DHT22;70954;49.500;10.416;2023-09-12T04:01:00;17.80;61.10
81524;DHT22;70954;49.500;10.416;2023-09-12T04:03:25;17.70;61.10
81524;DHT22;70954;49.500;10.416;2023-09-12T04:05:51;17.70;61.20
81524;DHT22;70954;49.500;10.416;2023-09-12T04:08:16;17.70;61.20
81524;DHT22;70954;49.500;10.416;2023-09-12T04:10:43;17.70;61.30
81524;DHT22;70954;49.500;10.416;2023-09-12T04:13:08;17.60;61.40
81524;DHT22;70954;49.500;10.416;2023-09-12T04:15:34;17.60;61.50
81524;DHT22;70954;49.500;10.416;2023-09-12T04:17:59;17.60;61.60
81524;DHT22;70954;49.500;10.416;2023-09-12T04:20:25;17.60;61.60
81524;DHT22;70954;49.500;10.416;2023-09-12T04:22:50;17.60;61.60
81524;DHT22;70954;49.500;10.416;2023-09-12T04:25:16;17.60;61.60
81524;DHT22;70954;49.500;10.416;2023-09-12T04:27:41;17.50;61.60
81524;DHT22;70954;49.500;10.416;2023-09-12T04:30:07;17.50;61.60
81524;DHT22;70954;49.500;10.416;2023-09-12T04:32:33;17.50;61.60
81524;DHT22;70954;49.500;10.416;2023-09-12T04:34:59;17.50;61.60
81524;DHT22;70954;49.500;10.416;2023-09-12T04:37:24;17.50;61.60
81524;DHT22;70954;49.500;10.416;2023-09-12T04:39:50;17.50;61.70
81524;DHT22;70954;49.500;10.416;2023-09-12T04:42:15;17.50;61.80
81524;DHT22;70954;49.500;10.416;2023-09-12T04:44:41;17.50;61.80
81524;DHT22;70954;49.500;10.416;2023-09-12T04:47:07;17.50;61.80
81524;DHT22;70954;49.500;10.416;2023-09-12T04:49:33;17.50;61.80
81524;DHT22;70954;49.500;10.416;2023-09-12T04:51:59;17.50;61.80
81524;DHT22;70954;49.500;10.416;2023-09-12T04:54:24;17.40;61.90
81524;DHT22;70954;49.500;10.416;2023-09-12T04:56:50;17.40;62.10
81524;DHT22;70954;49.500;10.416;2023-09-12T04:59:16;17.40;62.20
81524;DHT22;70954;49.500;10.416;2023-09-12T05:01:41;17.40;62.20
81524;DHT22;70954;49.500;10.416;2023-09-12T05:04:07;17.40;62.20
81524;DHT22;70954;49.500;10.416;2023-09-12T05:06:32;17.40;62.20
81524;DHT22;70954;49.500;10.416;2023-09-12T05:08:58;17.40;62.20
81524;DHT22;70954;49.500;10.416;2023-09-12T05:11:23;17.40;62.20
81524;DHT22;70954;49.500;10.416;2023-09-12T05:13:49;17.40;62.10
81524;DHT22;70954;49.500;10.416;2023-09-12T05:16:14;17.40;62.10
81524;DHT22;70954;49.500;10.416;2023-09-12T05:18:40;17.40;62.10
81524;DHT22;70954;49.500;10.416;2023-09-12T05:21:05;17.40;62.20
81524;DHT22;70954;49.500;10.416;2023-09-12T05:23:31;17.40;62.20
81524;DHT22;70954;49.500;10.416;2023-09-12T05:25:56;17.40;62.20
81524;DHT22;70954;49.500;10.416;2023-09-12T05:28:22;17.40;62.10
81524;DHT22;70954;49.500;10.416;2023-09-12T05:30:47;17.40;62.20
81524;DHT22;70954;49.500;10.416;2023-09-12T05:33:12;17.40;62.20
81524;DHT22;70954;49.500;10.416;2023-09-12T05:35:38;17.30;62.30
81524;DHT22;70954;49.500;10.416;2023-09-12T05:38:03;17.40;62.40
81524;DHT22;70954;49.500;10.416;2023-09-12T05:40:29;17.30;62.50
81524;DHT22;70954;49.500;10.416;2023-09-12T05:42:54;17.40;62.70
81524;DHT22;70954;49.500;10.416;2023-09-12T05:45:20;17.30;62.70
81524;DHT22;70954;49.500;10.416;2023-09-12T05:47:45;17.30;62.90
81524;DHT22;70954;49.500;10.416;2023-09-12T05:50:11;17.40;62.90
81524;DHT22;70954;49.500;10.416;2023-09-12T05:52:36;17.40;63.00
81524;DHT22;70954;49.500;10.416;2023-09-12T05:55:02;17.40;63.10
81524;DHT22;70954;49.500;10.416;2023-09-12T05:57:27;17.40;63.20
81524;DHT22;70954;49.500;10.416;2023-09-12T05:59:53;17.50;63.20
81524;DHT22;70954;49.500;10.416;2023-09-12T06:02:18;17.50;63.40
81524;DHT22;70954;49.500;10.416;2023-09-12T06:04:44;17.50;63.50
81524;DHT22;70954;49.500;10.416;2023-09-12T06:07:09;17.50;63.50
81524;DHT22;70954;49.500;10.416;2023-09-12T06:09:35;17.60;63.60
81524;DHT22;70954;49.500;10.416;2023-09-12T06:12:01;17.60;63.50
81524;DHT22;70954;49.500;10.416;2023-09-12T06:14:26;17.60;63.50
81524;DHT22;70954;49.500;10.416;2023-09-12T06:16:52;17.70;63.60
81524;DHT22;70954;49.500;10.416;2023-09-12T06:19:17;17.80;63.70
81524;DHT22;70954;49.500;10.416;2023-09-12T06:21:42;17.80;63.80
81524;DHT22;70954;49.500;10.416;2023-09-12T06:24:10;17.80;63.80
81524;DHT22;70954;49.500;10.416;2023-09-12T06:26:37;17.90;63.90
81524;DHT22;70954;49.500;10.416;2023-09-12T06:29:02;18.00;64.00
81524;DHT22;70954;49.500;10.416;2023-09-12T06:31:28;18.00;64.00
81524;DHT22;70954;49.500;10.416;2023-09-12T06:33:54;18.10;64.00
81524;DHT22;70954;49.500;10.416;2023-09-12T06:36:19;18.10;64.10
81524;DHT22;70954;49.500;10.416;2023-09-12T06:38:44;18.20;64.10
81524;DHT22;70954;49.500;10.416;2023-09-12T06:41:10;18.30;64.10
81524;DHT22;70954;49.500;10.416;2023-09-12T06:43:35;18.30;64.10
81524;DHT22;70954;49.500;10.416;2023-09-12T06:46:01;18.40;64.00
81524;DHT22;70954;49.500;10.416;2023-09-12T06:48:26;18.50;63.80
81524;DHT22;70954;49.500;10.416;2023-09-12T06:50:53;18.60;63.70
81524;DHT22;70954;49.500;10.416;2023-09-12T06:53:19;18.60;63.70
81524;DHT22;70954;49.500;10.416;2023-09-12T06:55:44;18.70;63.70
81524;DHT22;70954;49.500;10.416;2023-09-12T06:58:10;18.70;63.70
81524;DHT22;70954;49.500;10.416;2023-09-12T07:00:35;18.80;63.70
81524;DHT22;70954;49.500;10.416;2023-09-12T07:03:00;18.90;63.80
81524;DHT22;70954;49.500;10.416;2023-09-12T07:05:26;19.00;63.80
81524;DHT22;70954;49.500;10.416;2023-09-12T07:07:52;19.00;63.80
81524;DHT22;70954;49.500;10.416;2023-09-12T07:10:17;19.10;63.70
81524;DHT22;70954;49.500;10.416;2023-09-12T07:12:43;19.20;63.80
81524;DHT22;70954;49.500;10.416;2023-09-12T07:15:09;19.30;63.70
81524;DHT22;70954;49.500;10.416;2023-09-12T07:17:34;19.40;63.70
81524;DHT22;70954;49.500;10.416;2023-09-12T07:20:00;19.50;63.60
81524;DHT22;70954;49.500;10.416;2023-09-12T07:22:25;19.60;63.50
81524;DHT22;70954;49.500;10.416;2023-09-12T07:24:51;19.70;63.50
81524;DHT22;70954;49.500;10.416;2023-09-12T07:27:16;19.70;63.40
81524;DHT22;70954;49.500;10.416;2023-09-12T07:29:42;19.90;63.40
81524;DHT22;70954;49.500;10.416;2023-09-12T07:32:07;20.00;63.30
81524;DHT22;70954;49.500;10.416;2023-09-12T07:34:33;20.00;63.30
81524;DHT22;70954;49.500;10.416;2023-09-12T07:36:58;20.10;63.30
81524;DHT22;70954;49.500;10.416;2023-09-12T07:39:24;20.30;63.10
81524;DHT22;70954;49.500;10.416;2023-09-12T07:41:49;20.40;63.20
81524;DHT22;70954;49.500;10.416;2023-09-12T07:44:15;20.50;63.20
81524;DHT22;70954;49.500;10.416;2023-09-12T07:46:40;20.60;63.10
81524;DHT22;70954;49.500;10.416;2023-09-12T07:49:06;20.70;63.00
81524;DHT22;70954;49.500;10.416;2023-09-12T07:51:31;20.80;62.90
81524;DHT22;70954;49.500;10.416;2023-09-12T07:53:57;20.90;62.90
81524;DHT22;70954;49.500;10.416;2023-09-12T07:56:22;21.00;62.90
81524;DHT22;70954;49.500;10.416;2023-09-12T07:58:48;21.10;62.90
81524;DHT22;70954;49.500;10.416;2023-09-12T08:01:14;21.30;62.80
81524;DHT22;70954;49.500;10.416;2023-09-12T08:03:39;21.40;62.80
81524;DHT22;70954;49.500;10.416;2023-09-12T08:06:05;21.50;62.70
81524;DHT22;70954;49.500;10.416;2023-09-12T08:08:31;21.70;62.50
81524;DHT22;70954;49.500;10.416;2023-09-12T08:10:57;21.80;62.50
81524;DHT22;70954;49.500;10.416;2023-09-12T08:13:25;21.90;62.40
81524;DHT22;70954;49.500;10.416;2023-09-12T08:15:50;22.10;62.20
81524;DHT22;70954;49.500;10.416;2023-09-12T08:18:16;22.30;62.00
81524;DHT22;70954;49.500;10.416;2023-09-12T08:20:42;22.40;61.80
81524;DHT22;70954;49.500;10.416;2023-09-12T08:23:07;22.50;61.70
81524;DHT22;70954;49.500;10.416;2023-09-12T08:25:33;22.70;61.50
81524;DHT22;70954;49.500;10.416;2023-09-12T08:27:58;22.80;61.40
81524;DHT22;70954;49.500;10.416;2023-09-12T08:30:24;23.00;61.10
81524;DHT22;70954;49.500;10.416;2023-09-12T08:32:49;23.10;60.80
81524;DHT22;70954;49.500;10.416;2023-09-12T08:35:15;23.30;60.50
81524;DHT22;70954;49.500;10.416;2023-09-12T08:37:41;23.40;60.30
81524;DHT22;70954;49.500;10.416;2023-09-12T08:40:10;23.50;60.10
81524;DHT22;70954;49.500;10.416;2023-09-12T08:42:43;23.60;59.80
81524;DHT22;70954;49.500;10.416;2023-09-12T08:45:12;23.70;59.50
81524;DHT22;70954;49.500;10.416;2023-09-12T08:47:40;23.90;59.30
81524;DHT22;70954;49.500;10.416;2023-09-12T08:50:08;24.00;59.10
81524;DHT22;70954;49.500;10.416;2023-09-12T08:52:35;24.00;58.80
81524;DHT22;70954;49.500;10.416;2023-09-12T08:55:01;24.10;58.70
81524;DHT22;70954;49.500;10.416;2023-09-12T08:57:27;24.20;58.70
81524;DHT22;70954;49.500;10.416;2023-09-12T08:59:54;24.20;58.60
81524;DHT22;70954;49.500;10.416;2023-09-12T09:02:20;24.30;58.50
81524;DHT22;70954;49.500;10.416;2023-09-12T09:04:46;24.40;58.50
81524;DHT22;70954;49.500;10.416;2023-09-12T09:07:12;24.40;58.50
81524;DHT22;70954;49.500;10.416;2023-09-12T09:09:38;24.50;58.40
81524;DHT22;70954;49.500;10.416;2023-09-12T09:12:07;24.60;58.30
81524;DHT22;70954;49.500;10.416;2023-09-12T09:14:33;24.70;58.20
81524;DHT22;70954;49.500;10.416;2023-09-12T09:16:58;24.80;58.10
81524;DHT22;70954;49.500;10.416;2023-09-12T09:19:40;24.80;57.90
81524;DHT22;70954;49.500;10.416;2023-09-12T09:22:06;24.90;57.60
81524;DHT22;70954;49.500;10.416;2023-09-12T09:24:31;25.00;57.90
81524;DHT22;70954;49.500;10.416;2023-09-12T09:26:57;25.00;57.90
81524;DHT22;70954;49.500;10.416;2023-09-12T09:29:22;25.20;57.90
81524;DHT22;70954;49.500;10.416;2023-09-12T09:31:50;25.20;57.80
81524;DHT22;70954;49.500;10.416;2023-09-12T09:36:43;25.40;57.50
81524;DHT22;70954;49.500;10.416;2023-09-12T09:39:09;25.50;57.40
81524;DHT22;70954;49.500;10.416;2023-09-12T09:41:36;25.60;57.20
81524;DHT22;70954;49.500;10.416;2023-09-12T09:44:02;25.70;56.90
81524;DHT22;70954;49.500;10.416;2023-09-12T09:46:27;25.80;56.70
81524;DHT22;70954;49.500;10.416;2023-09-12T09:48:53;25.90;56.60
81524;DHT22;70954;49.500;10.416;2023-09-12T09:51:19;26.00;56.50
81524;DHT22;70954;49.500;10.416;2023-09-12T09:53:44;26.10;56.30
81524;DHT22;70954;49.500;10.416;2023-09-12T09:56:14;26.20;56.10
81524;DHT22;70954;49.500;10.416;2023-09-12T09:58:54;26.30;55.90
81524;DHT22;70954;49.500;10.416;2023-09-12T10:01:28;26.40;55.20
81524;DHT22;70954;49.500;10.416;2023-09-12T10:03:58;26.50;55.30
81524;DHT22;70954;49.500;10.416;2023-09-12T10:06:24;26.60;55.00
81524;DHT22;70954;49.500;10.416;2023-09-12T10:08:53;26.60;55.00
81524;DHT22;70954;49.500;10.416;2023-09-12T10:11:22;26.70;54.70
81524;DHT22;70954;49.500;10.416;2023-09-12T10:13:56;26.80;54.40
81524;DHT22;70954;49.500;10.416;2023-09-12T10:16:30;26.90;54.20
81524;DHT22;70954;49.500;10.416;2023-09-12T10:21:30;27.00;53.90
81524;DHT22;70954;49.500;10.416;2023-09-12T10:23:58;27.10;54.00
81524;DHT22;70954;49.500;10.416;2023-09-12T10:26:24;27.20;53.80
81524;DHT22;70954;49.500;10.416;2023-09-12T10:28:50;27.20;53.70
81524;DHT22;70954;49.500;10.416;2023-09-12T10:31:17;27.30;53.60
81524;DHT22;70954;49.500;10.416;2023-09-12T10:33:43;27.40;53.50
81524;DHT22;70954;49.500;10.416;2023-09-12T10:36:09;27.40;53.30
81524;DHT22;70954;49.500;10.416;2023-09-12T10:38:43;27.50;53.10
81524;DHT22;70954;49.500;10.416;2023-09-12T10:41:11;27.50;52.80
81524;DHT22;70954;49.500;10.416;2023-09-12T10:43:37;27.60;53.00
81524;DHT22;70954;49.500;10.416;2023-09-12T10:46:03;27.70;52.90
81524;DHT22;70954;49.500;10.416;2023-09-12T10:48:30;27.80;52.80
81524;DHT22;70954;49.500;10.416;2023-09-12T10:50:58;27.90;52.80
81524;DHT22;70954;49.500;10.416;2023-09-12T10:53:26;28.00;52.70
81524;DHT22;70954;49.500;10.416;2023-09-12T10:56:20;28.10;52.50
81524;DHT22;70954;49.500;10.416;2023-09-12T11:01:30;28.20;51.80
81524;DHT22;70954;49.500;10.416;2023-09-12T11:03:56;28.30;52.10
81524;DHT22;70954;49.500;10.416;2023-09-12T11:06:31;28.30;51.90
81524;DHT22;70954;49.500;10.416;2023-09-12T11:11:41;28.50;51.00
81524;DHT22;70954;49.500;10.416;2023-09-12T11:14:07;28.50;51.40
81524;DHT22;70954;49.500;10.416;2023-09-12T11:16:33;28.60;51.20
81524;DHT22;70954;49.500;10.416;2023-09-12T11:19:20;28.70;51.20
81524;DHT22;70954;49.500;10.416;2023-09-12T11:21:50;28.70;50.30
81524;DHT22;70954;49.500;10.416;2023-09-12T11:24:17;28.80;50.80
81524;DHT22;70954;49.500;10.416;2023-09-12T11:29:21;28.90;50.10
81524;DHT22;70954;49.500;10.416;2023-09-12T11:31:58;29.00;50.40
81524;DHT22;70954;49.500;10.416;2023-09-12T11:34:27;29.00;50.10
81524;DHT22;70954;49.500;10.416;2023-09-12T11:36:55;29.10;50.10
81524;DHT22;70954;49.500;10.416;2023-09-12T11:39:28;29.20;50.00
81524;DHT22;70954;49.500;10.416;2023-09-12T11:41:55;29.20;49.70
81524;DHT22;70954;49.500;10.416;2023-09-12T11:44:21;29.30;49.70
81524;DHT22;70954;49.500;10.416;2023-09-12T11:46:49;29.30;49.70
81524;DHT22;70954;49.500;10.416;2023-09-12T11:49:15;29.40;49.50
81524;DHT22;70954;49.500;10.416;2023-09-12T11:51:48;29.30;49.50
81524;DHT22;70954;49.500;10.416;2023-09-12T11:54:18;29.50;48.90
81524;DHT22;70954;49.500;10.416;2023-09-12T11:56:44;29.50;49.10
81524;DHT22;70954;49.500;10.416;2023-09-12T11:59:09;29.50;49.10
81524;DHT22;70954;49.500;10.416;2023-09-12T12:01:35;29.60;48.90
81524;DHT22;70954;49.500;10.416;2023-09-12T12:04:00;29.70;48.60
81524;DHT22;70954;49.500;10.416;2023-09-12T12:06:26;29.70;48.60
81524;DHT22;70954;49.500;10.416;2023-09-12T12:08:51;29.70;48.50
81524;DHT22;70954;49.500;10.416;2023-09-12T12:11:18;29.80;48.40
81524;DHT22;70954;49.500;10.416;2023-09-12T12:13:44;29.90;48.10
81524;DHT22;70954;49.500;10.416;2023-09-12T12:16:16;29.90;47.90
81524;DHT22;70954;49.500;10.416;2023-09-12T12:18:42;30.00;47.30
81524;DHT22;70954;49.500;10.416;2023-09-12T12:21:07;30.00;47.50
81524;DHT22;70954;49.500;10.416;2023-09-12T12:23:33;30.00;47.20
81524;DHT22;70954;49.500;10.416;2023-09-12T12:26:05;30.10;47.10
81524;DHT22;70954;49.500;10.416;2023-09-12T12:28:31;30.10;46.70
81524;DHT22;70954;49.500;10.416;2023-09-12T12:30:56;30.10;46.80
81524;DHT22;70954;49.500;10.416;2023-09-12T12:33:22;30.20;46.80
81524;DHT22;70954;49.500;10.416;2023-09-12T12:35:47;30.30;46.90
81524;DHT22;70954;49.500;10.416;2023-09-12T12:38:13;30.30;46.90
81524;DHT22;70954;49.500;10.416;2023-09-12T12:40:39;30.30;46.90
81524;DHT22;70954;49.500;10.416;2023-09-12T12:43:04;30.40;46.80
81524;DHT22;70954;49.500;10.416;2023-09-12T12:45:30;30.40;46.70
81524;DHT22;70954;49.500;10.416;2023-09-12T12:47:59;30.50;46.60
81524;DHT22;70954;49.500;10.416;2023-09-12T12:50:25;30.50;46.00
81524;DHT22;70954;49.500;10.416;2023-09-12T12:52:51;30.50;46.00
81524;DHT22;70954;49.500;10.416;2023-09-12T12:55:16;30.50;45.90
81524;DHT22;70954;49.500;10.416;2023-09-12T12:57:43;30.60;45.60
81524;DHT22;70954;49.500;10.416;2023-09-12T13:00:14;30.60;45.40
81524;DHT22;70954;49.500;10.416;2023-09-12T13:02:41;30.60;45.50
81524;DHT22;70954;49.500;10.416;2023-09-12T13:05:28;30.70;45.40
81524;DHT22;70954;49.500;10.416;2023-09-12T13:07:54;30.70;44.70
81524;DHT22;70954;49.500;10.416;2023-09-12T13:10:21;30.70;45.10
81524;DHT22;70954;49.500;10.416;2023-09-12T13:12:50;30.70;45.00
81524;DHT22;70954;49.500;10.416;2023-09-12T13:15:16;30.80;44.80
81524;DHT22;70954;49.500;10.416;2023-09-12T13:17:42;30.80;44.70
81524;DHT22;70954;49.500;10.416;2023-09-12T13:20:08;30.80;44.70
81524;DHT22;70954;49.500;10.416;2023-09-12T13:22:37;30.80;44.60
81524;DHT22;70954;49.500;10.416;2023-09-12T13:25:04;30.80;44.50
81524;DHT22;70954;49.500;10.416;2023-09-12T13:27:29;30.90;44.40
81524;DHT22;70954;49.500;10.416;2023-09-12T13:29:55;30.90;44.50
81524;DHT22;70954;49.500;10.416;2023-09-12T13:32:20;30.90;44.20
81524;DHT22;70954;49.500;10.416;2023-09-12T13:34:46;31.00;44.30
81524;DHT22;70954;49.500;10.416;2023-09-12T13:37:11;31.00;44.00
81524;DHT22;70954;49.500;10.416;2023-09-12T13:39:37;31.00;44.00
81524;DHT22;70954;49.500;10.416;2023-09-12T13:42:02;31.00;44.10
81524;DHT22;70954;49.500;10.416;2023-09-12T13:44:28;31.00;44.10
81524;DHT22;70954;49.500;10.416;2023-09-12T13:46:53;31.00;43.70
81524;DHT22;70954;49.500;10.416;2023-09-12T13:49:19;31.10;43.70
81524;DHT22;70954;49.500;10.416;2023-09-12T13:51:44;31.10;43.60
81524;DHT22;70954;49.500;10.416;2023-09-12T13:54:10;31.10;43.40
81524;DHT22;70954;49.500;10.416;2023-09-12T13:56:35;31.10;43.20
81524;DHT22;70954;49.500;10.416;2023-09-12T13:59:01;31.20;43.20
81524;DHT22;70954;49.500;10.416;2023-09-12T14:01:26;31.20;43.10
81524;DHT22;70954;49.500;10.416;2023-09-12T14:03:51;31.20;42.90
81524;DHT22;70954;49.500;10.416;2023-09-12T14:06:17;31.20;42.90
81524;DHT22;70954;49.500;10.416;2023-09-12T14:08:42;31.20;43.00
81524;DHT22;70954;49.500;10.416;2023-09-12T14:11:08;31.20;43.00
81524;DHT22;70954;49.500;10.416;2023-09-12T14:13:33;31.20;42.90
81524;DHT22;70954;49.500;10.416;2023-09-12T14:15:59;31.20;42.80
81524;DHT22;70954;49.500;10.416;2023-09-12T14:18:24;31.20;42.70
81524;DHT22;70954;49.500;10.416;2023-09-12T14:20:50;31.20;42.50
81524;DHT22;70954;49.500;10.416;2023-09-12T14:23:15;31.20;42.50
81524;DHT22;70954;49.500;10.416;2023-09-12T14:25:41;31.30;42.30
81524;DHT22;70954;49.500;10.416;2023-09-12T14:28:06;31.30;42.30
81524;DHT22;70954;49.500;10.416;2023-09-12T14:30:32;31.30;42.20
81524;DHT22;70954;49.500;10.416;2023-09-12T14:32:57;31.30;42.20
81524;DHT22;70954;49.500;10.416;2023-09-12T14:35:22;31.30;42.30
81524;DHT22;70954;49.500;10.416;2023-09-12T14:37:48;31.30;42.40
81524;DHT22;70954;49.500;10.416;2023-09-12T14:40:13;31.40;42.30
81524;DHT22;70954;49.500;10.416;2023-09-12T14:42:39;31.40;42.20
81524;DHT22;70954;49.500;10.416;2023-09-12T14:45:05;31.40;42.30
81524;DHT22;70954;49.500;10.416;2023-09-12T14:47:31;31.40;42.20
81524;DHT22;70954;49.500;10.416;2023-09-12T14:49:56;31.40;42.20
81524;DHT22;70954;49.500;10.416;2023-09-12T14:52:22;31.40;42.20
81524;DHT22;70954;49.500;10.416;2023-09-12T14:54:47;31.40;42.10
81524;DHT22;70954;49.500;10.416;2023-09-12T14:57:13;31.40;42.10
81524;DHT22;70954;49.500;10.416;2023-09-12T14:59:38;31.40;41.90
81524;DHT22;70954;49.500;10.416;2023-09-12T15:02:03;31.40;41.80
81524;DHT22;70954;49.500;10.416;2023-09-12T15:04:29;31.50;41.50
81524;DHT22;70954;49.500;10.416;2023-09-12T15:06:54;31.50;41.50
81524;DHT22;70954;49.500;10.416;2023-09-12T15:09:20;31.50;41.30
81524;DHT22;70954;49.500;10.416;2023-09-12T15:11:45;31.50;41.40
81524;DHT22;70954;49.500;10.416;2023-09-12T15:14:11;31.50;41.40
81524;DHT22;70954;49.500;10.416;2023-09-12T15:16:36;31.50;41.60
81524;DHT22;70954;49.500;10.416;2023-09-12T15:19:02;31.50;41.40
81524;DHT22;70954;49.500;10.416;2023-09-12T15:21:27;31.50;41.20
81524;DHT22;70954;49.500;10.416;2023-09-12T15:23:52;31.60;41.10
81524;DHT22;70954;49.500;10.416;2023-09-12T15:26:18;31.60;41.20
81524;DHT22;70954;49.500;10.416;2023-09-12T15:28:43;31.60;41.30